Time;durP1;ratioP1;P1;durP2;ratioP2;P2;SDS_P1;SDS_P2;PMS_P1;PMS_P2;Temp;Humidity;BMP_temperature;BMP_pressure;BME280_temperature;BME280_humidity;BME280_pressure;Samples;Min_cycle;Max_cycle;Signal;HPM_P1;HPM_P2
2022/03/29 00:01:19;;;;;;;;;;;10.90;75.40;;;;;;5039049;28;20012;-49
2022/03/29 00:03:46;;;;;;;;;;;11.00;75.30;;;;;;5039997;28;19925;-48
2022/03/29 00:06:13;;;;;;;;;;;10.90;75.40;;;;;;5035529;28;19925;-48
2022/03/29 00:08:40;;;;;;;;;;;11.00;74.40;;;;;;5037942;28;19925;-48
2022/03/29 00:11:07;;;;;;;;;;;11.10;74.20;;;;;;5042361;28;19925;-48
2022/03/29 00:13:34;;;;;;;;;;;11.10;74.50;;;;;;5042037;28;19975;-48
2022/03/29 00:16:02;;;;;;;;;;;11.00;74.60;;;;;;5039768;28;19971;-47
2022/03/29 00:18:29;;;;;;;;;;;11.10;74.20;;;;;;5039474;28;19976;-47
2022/03/29 00:20:55;;;;;;;;;;;11.20;73.50;;;;;;5036393;28;20406;-48
2022/03/29 00:23:22;;;;;;;;;;;11.30;73.40;;;;;;5042488;28;19979;-48
2022/03/29 00:25:49;;;;;;;;;;;11.20;73.30;;;;;;5035298;28;19925;-48
2022/03/29 00:28:15;;;;;;;;;;;11.10;73.30;;;;;;5040516;28;19971;-48
2022/03/29 00:30:42;;;;;;;;;;;11.10;73.70;;;;;;5038929;28;20385;-48
2022/03/29 00:33:10;;;;;;;;;;;11.00;74.40;;;;;;5032024;28;19924;-48
2022/03/29 00:35:38;;;;;;;;;;;10.80;74.60;;;;;;5036043;28;19925;-48
2022/03/29 00:38:05;;;;;;;;;;;10.80;74.40;;;;;;5041448;28;20388;-48
2022/03/29 00:40:31;;;;;;;;;;;10.80;74.40;;;;;;5042104;28;19971;-48
2022/03/29 00:42:58;;;;;;;;;;;10.70;74.80;;;;;;5033185;28;19991;-47
2022/03/29 00:45:25;;;;;;;;;;;10.70;74.50;;;;;;5034024;28;20375;-48
2022/03/29 00:47:52;;;;;;;;;;;10.60;74.50;;;;;;5037372;28;19979;-48
2022/03/29 00:50:20;;;;;;;;;;;10.60;74.70;;;;;;5039391;28;19925;-48
2022/03/29 00:52:47;;;;;;;;;;;10.70;74.30;;;;;;5033625;28;19973;-48
2022/03/29 00:55:14;;;;;;;;;;;10.80;73.60;;;;;;5040766;28;19933;-49
2022/03/29 00:57:41;;;;;;;;;;;10.90;72.80;;;;;;5042901;28;20424;-47
2022/03/29 01:00:08;;;;;;;;;;;11.00;73.20;;;;;;5045624;28;20346;-48
2022/03/29 01:02:35;;;;;;;;;;;10.90;73.10;;;;;;5044651;28;19924;-48
2022/03/29 01:05:02;;;;;;;;;;;10.90;73.10;;;;;;5041818;28;19925;-47
2022/03/29 01:07:30;;;;;;;;;;;10.90;73.00;;;;;;5039152;28;19925;-47
2022/03/29 01:09:58;;;;;;;;;;;10.80;73.70;;;;;;5041843;28;20368;-47
2022/03/29 01:12:24;;;;;;;;;;;10.60;74.40;;;;;;5047686;28;19955;-48
2022/03/29 01:14:52;;;;;;;;;;;10.50;74.90;;;;;;5037846;28;20363;-48
2022/03/29 01:20:04;;;;;;;;;;;10.50;74.60;;;;;;5041470;28;19943;-48
2022/03/29 01:22:33;;;;;;;;;;;10.40;74.50;;;;;;5039382;28;20410;-48
2022/03/29 01:25:00;;;;;;;;;;;10.50;74.00;;;;;;5039462;28;19979;-49
2022/03/29 01:27:27;;;;;;;;;;;10.50;73.90;;;;;;5042846;28;19933;-49
2022/03/29 01:29:57;;;;;;;;;;;10.50;73.30;;;;;;5035289;28;19995;-48
2022/03/29 01:32:27;;;;;;;;;;;10.60;73.50;;;;;;5045794;28;20019;-47
2022/03/29 01:34:54;;;;;;;;;;;10.60;73.20;;;;;;5048239;28;19929;-49
2022/03/29 01:37:21;;;;;;;;;;;10.60;73.30;;;;;;5046641;28;19937;-48
2022/03/29 01:39:49;;;;;;;;;;;10.60;73.00;;;;;;5041666;28;19933;-49
2022/03/29 01:42:16;;;;;;;;;;;10.60;73.10;;;;;;5044532;28;19925;-46
2022/03/29 01:44:42;;;;;;;;;;;10.60;72.80;;;;;;5043418;28;19999;-48
2022/03/29 01:47:09;;;;;;;;;;;10.50;73.80;;;;;;5032452;28;19929;-48
2022/03/29 01:49:36;;;;;;;;;;;10.40;74.00;;;;;;5039119;28;19929;-47
2022/03/29 01:52:03;;;;;;;;;;;10.50;73.80;;;;;;5044163;28;19979;-48
2022/03/29 01:54:30;;;;;;;;;;;10.40;74.10;;;;;;5043384;28;19971;-49
2022/03/29 01:56:58;;;;;;;;;;;10.40;74.10;;;;;;5040896;28;20438;-49
2022/03/29 01:59:25;;;;;;;;;;;10.40;74.40;;;;;;5041333;28;19925;-48
2022/03/29 02:01:52;;;;;;;;;;;10.30;74.50;;;;;;5042312;28;19933;-49
2022/03/29 02:04:19;;;;;;;;;;;10.20;75.40;;;;;;5040456;28;19971;-48
2022/03/29 02:06:45;;;;;;;;;;;10.10;74.80;;;;;;5037437;28;19929;-49
2022/03/29 02:09:12;;;;;;;;;;;9.90;76.30;;;;;;5042871;28;20088;-48
2022/03/29 02:11:41;;;;;;;;;;;9.90;76.90;;;;;;5047352;28;20367;-49
2022/03/29 02:14:10;;;;;;;;;;;10.00;75.50;;;;;;5035875;28;20384;-49
2022/03/29 02:16:37;;;;;;;;;;;9.90;76.90;;;;;;5033488;28;19925;-48
2022/03/29 02:19:03;;;;;;;;;;;9.90;77.20;;;;;;5050056;28;19971;-49
2022/03/29 02:21:30;;;;;;;;;;;9.90;77.00;;;;;;5047618;28;19978;-48
2022/03/29 02:23:57;;;;;;;;;;;9.70;77.00;;;;;;5042001;28;19994;-48
2022/03/29 02:26:25;;;;;;;;;;;9.70;77.70;;;;;;5032876;28;19925;-48
2022/03/29 02:28:51;;;;;;;;;;;9.70;77.50;;;;;;5041942;28;19936;-48
2022/03/29 02:31:20;;;;;;;;;;;9.70;77.60;;;;;;5041463;28;19994;-48
2022/03/29 02:33:47;;;;;;;;;;;9.80;77.20;;;;;;5044190;28;19962;-48
2022/03/29 02:36:15;;;;;;;;;;;9.60;78.10;;;;;;5033902;28;19932;-49
2022/03/29 02:38:42;;;;;;;;;;;9.60;77.90;;;;;;5040952;28;19933;-49
2022/03/29 02:41:09;;;;;;;;;;;9.60;77.50;;;;;;5032181;28;19925;-48
2022/03/29 02:43:36;;;;;;;;;;;9.60;77.70;;;;;;5044093;28;19929;-48
2022/03/29 02:46:04;;;;;;;;;;;9.70;76.90;;;;;;5030247;28;20771;-47
2022/03/29 02:48:32;;;;;;;;;;;9.80;76.50;;;;;;5041489;28;19956;-47
2022/03/29 02:50:59;;;;;;;;;;;9.90;76.70;;;;;;5031463;28;20421;-47
2022/03/29 02:53:26;;;;;;;;;;;9.90;76.50;;;;;;5043243;28;20400;-48
2022/03/29 02:55:53;;;;;;;;;;;9.80;76.80;;;;;;5038244;28;19925;-47
2022/03/29 02:58:20;;;;;;;;;;;9.70;77.30;;;;;;5029039;28;19925;-48
2022/03/29 03:00:47;;;;;;;;;;;9.60;77.10;;;;;;5032434;28;20543;-47
2022/03/29 03:03:14;;;;;;;;;;;9.60;77.50;;;;;;5034344;28;19952;-49
2022/03/29 03:05:43;;;;;;;;;;;9.60;77.70;;;;;;5032904;28;20759;-49
2022/03/29 03:08:09;;;;;;;;;;;9.50;78.40;;;;;;5032069;28;20307;-48
2022/03/29 03:10:36;;;;;;;;;;;9.50;78.60;;;;;;5039127;28;19926;-48
2022/03/29 03:13:03;;;;;;;;;;;9.30;79.10;;;;;;5034977;28;20369;-48
2022/03/29 03:15:30;;;;;;;;;;;9.10;79.60;;;;;;5037422;28;19925;-48
2022/03/29 03:17:58;;;;;;;;;;;9.10;80.00;;;;;;5037559;28;19932;-48
2022/03/29 03:20:26;;;;;;;;;;;9.00;80.30;;;;;;5035270;28;20312;-49
2022/03/29 03:22:54;;;;;;;;;;;9.00;80.30;;;;;;5032417;28;20016;-48
2022/03/29 03:25:21;;;;;;;;;;;8.90;79.80;;;;;;5029131;28;19925;-47
2022/03/29 03:27:48;;;;;;;;;;;8.80;79.60;;;;;;5025877;28;20034;-48
2022/03/29 03:30:16;;;;;;;;;;;9.00;79.70;;;;;;5026876;28;19929;-48
2022/03/29 03:32:43;;;;;;;;;;;9.10;79.00;;;;;;5025469;28;20340;-48
2022/03/29 03:35:10;;;;;;;;;;;9.00;78.80;;;;;;5035215;28;19978;-48
2022/03/29 03:37:37;;;;;;;;;;;9.10;79.40;;;;;;5019239;28;19929;-47
2022/03/29 03:40:06;;;;;;;;;;;9.10;79.10;;;;;;5020331;28;19941;-47
2022/03/29 03:42:33;;;;;;;;;;;9.20;78.10;;;;;;5024734;28;20085;-49
2022/03/29 03:45:02;;;;;;;;;;;9.30;77.90;;;;;;5029358;28;19925;-47
2022/03/29 03:47:29;;;;;;;;;;;9.50;76.90;;;;;;5029542;28;20412;-48
2022/03/29 03:49:56;;;;;;;;;;;9.30;79.40;;;;;;5031764;28;19983;-49
2022/03/29 03:52:23;;;;;;;;;;;9.10;80.70;;;;;;5027268;28;19930;-49
2022/03/29 03:54:49;;;;;;;;;;;8.80;81.50;;;;;;5018385;28;19929;-49
2022/03/29 03:57:18;;;;;;;;;;;8.60;82.50;;;;;;5024325;28;19940;-47
2022/03/29 03:59:48;;;;;;;;;;;8.40;83.20;;;;;;5020856;28;19983;-48
2022/03/29 04:02:14;;;;;;;;;;;8.20;83.90;;;;;;5030396;28;20387;-48
2022/03/29 04:04:41;;;;;;;;;;;8.20;84.20;;;;;;5025655;28;19987;-47
2022/03/29 04:09:36;;;;;;;;;;;8.20;84.00;;;;;;5024945;28;19945;-57
2022/03/29 04:12:04;;;;;;;;;;;8.00;84.50;;;;;;5020801;28;20384;-57
2022/03/29 04:14:32;;;;;;;;;;;7.90;84.90;;;;;;5025866;28;19926;-57
2022/03/29 04:16:59;;;;;;;;;;;7.80;86.30;;;;;;5028469;28;19925;-57
2022/03/29 04:19:25;;;;;;;;;;;7.80;86.30;;;;;;5028283;28;19936;-57
2022/03/29 04:21:52;;;;;;;;;;;7.80;86.20;;;;;;5032051;28;19948;-57
2022/03/29 04:24:19;;;;;;;;;;;7.80;86.50;;;;;;5033487;28;19928;-57
2022/03/29 04:26:47;;;;;;;;;;;7.70;86.30;;;;;;5031233;28;19929;-57
2022/03/29 04:29:14;;;;;;;;;;;7.70;87.30;;;;;;5022141;28;20311;-57
2022/03/29 04:31:42;;;;;;;;;;;7.60;88.40;;;;;;5019578;28;20278;-58
2022/03/29 04:34:08;;;;;;;;;;;7.60;88.10;;;;;;5026109;28;20334;-57
2022/03/29 04:36:35;;;;;;;;;;;7.60;88.50;;;;;;5023670;28;19979;-56
2022/03/29 04:39:02;;;;;;;;;;;7.50;89.40;;;;;;5033471;28;19979;-56
2022/03/29 04:41:29;;;;;;;;;;;7.60;88.10;;;;;;5018750;28;20471;-56
2022/03/29 04:43:56;;;;;;;;;;;7.80;86.60;;;;;;5024042;28;19925;-57
2022/03/29 04:46:23;;;;;;;;;;;7.80;85.70;;;;;;5023586;28;19925;-57
2022/03/29 04:48:52;;;;;;;;;;;7.80;85.00;;;;;;5020793;28;19925;-57
2022/03/29 04:51:22;;;;;;;;;;;8.10;84.00;;;;;;5011753;28;19940;-57
2022/03/29 04:53:49;;;;;;;;;;;8.10;83.60;;;;;;5012077;28;19988;-57
2022/03/29 04:56:19;;;;;;;;;;;8.10;83.10;;;;;;5011809;28;19981;-57
2022/03/29 04:58:46;;;;;;;;;;;8.10;83.50;;;;;;5027199;28;20011;-57
2022/03/29 05:01:17;;;;;;;;;;;8.10;83.00;;;;;;5025883;28;20403;-57
2022/03/29 05:03:44;;;;;;;;;;;8.10;83.20;;;;;;5029473;28;19980;-57
2022/03/29 05:06:12;;;;;;;;;;;8.40;83.50;;;;;;5013170;28;19925;-57
2022/03/29 05:08:39;;;;;;;;;;;8.40;83.10;;;;;;5011291;28;19933;-57
2022/03/29 05:11:06;;;;;;;;;;;8.20;84.20;;;;;;5027146;28;19982;-57
2022/03/29 05:13:33;;;;;;;;;;;8.10;85.20;;;;;;5029814;28;19936;-57
2022/03/29 05:15:59;;;;;;;;;;;8.00;86.20;;;;;;5021634;28;19926;-57
2022/03/29 05:18:26;;;;;;;;;;;8.00;86.30;;;;;;5019576;28;19929;-57
2022/03/29 05:20:53;;;;;;;;;;;8.00;86.30;;;;;;5026609;28;20011;-57
2022/03/29 05:23:22;;;;;;;;;;;7.90;87.10;;;;;;5024752;28;19924;-58
2022/03/29 05:25:49;;;;;;;;;;;8.10;85.90;;;;;;5029517;28;19925;-57
2022/03/29 05:28:16;;;;;;;;;;;8.10;85.80;;;;;;5034866;28;20435;-57
2022/03/29 05:30:43;;;;;;;;;;;8.10;86.60;;;;;;5016739;28;19925;-57
2022/03/29 05:33:15;;;;;;;;;;;8.10;86.00;;;;;;5016004;28;19926;-57
2022/03/29 05:35:43;;;;;;;;;;;8.30;85.20;;;;;;5013827;28;20397;-57
2022/03/29 05:38:10;;;;;;;;;;;8.40;85.20;;;;;;5029843;28;20300;-57
2022/03/29 05:40:38;;;;;;;;;;;8.40;85.50;;;;;;5029913;28;19925;-57
2022/03/29 05:43:08;;;;;;;;;;;8.40;85.00;;;;;;5013625;28;19955;-57
2022/03/29 05:45:35;;;;;;;;;;;8.50;84.10;;;;;;5018831;28;19925;-57
2022/03/29 05:50:46;;;;;;;;;;;8.90;83.00;;;;;;5032920;28;19928;-56
2022/03/29 05:53:13;;;;;;;;;;;9.20;81.60;;;;;;5019196;28;19980;-57
2022/03/29 05:55:42;;;;;;;;;;;9.30;81.90;;;;;;5023470;28;19925;-57
2022/03/29 05:58:09;;;;;;;;;;;9.40;82.50;;;;;;5037562;28;19929;-57
2022/03/29 06:00:36;;;;;;;;;;;9.50;81.90;;;;;;5020758;28;19945;-57
2022/03/29 06:03:02;;;;;;;;;;;9.60;81.10;;;;;;5020557;28;19929;-57
2022/03/29 06:05:29;;;;;;;;;;;9.60;81.10;;;;;;5024197;28;19988;-57
2022/03/29 06:07:56;;;;;;;;;;;9.60;81.60;;;;;;5029258;28;19983;-57
2022/03/29 06:10:23;;;;;;;;;;;9.70;82.00;;;;;;5027682;28;19979;-57
2022/03/29 06:12:51;;;;;;;;;;;9.70;82.30;;;;;;5029332;28;20282;-57
2022/03/29 06:15:18;;;;;;;;;;;9.70;81.40;;;;;;5035584;28;19925;-57
2022/03/29 06:17:44;;;;;;;;;;;9.80;81.00;;;;;;5020498;28;20015;-57
2022/03/29 06:20:12;;;;;;;;;;;10.00;78.00;;;;;;5022979;28;19929;-57
2022/03/29 06:22:40;;;;;;;;;;;10.10;78.60;;;;;;5031895;28;19979;-57
2022/03/29 06:25:08;;;;;;;;;;;10.30;77.90;;;;;;5032166;28;20019;-57
2022/03/29 06:27:35;;;;;;;;;;;10.20;77.80;;;;;;5030597;28;20324;-57
2022/03/29 06:30:03;;;;;;;;;;;10.60;76.40;;;;;;5034153;28;19925;-57
2022/03/29 06:32:30;;;;;;;;;;;10.80;77.10;;;;;;5025156;28;19980;-57
2022/03/29 06:34:57;;;;;;;;;;;11.10;76.70;;;;;;5033296;28;20341;-57
2022/03/29 06:37:24;;;;;;;;;;;11.00;76.50;;;;;;5035769;28;19924;-57
2022/03/29 06:39:50;;;;;;;;;;;11.20;76.10;;;;;;5032913;28;19925;-57
2022/03/29 06:42:18;;;;;;;;;;;11.00;74.30;;;;;;5042624;28;20518;-57
2022/03/29 06:44:45;;;;;;;;;;;11.10;74.30;;;;;;5030532;28;19929;-57
2022/03/29 06:47:14;;;;;;;;;;;11.20;73.60;;;;;;5037226;28;19980;-57
2022/03/29 06:49:41;;;;;;;;;;;11.30;74.80;;;;;;5037183;28;19983;-58
2022/03/29 06:52:08;;;;;;;;;;;11.40;73.60;;;;;;5029660;28;19987;-57
2022/03/29 06:54:35;;;;;;;;;;;11.40;73.60;;;;;;5032932;28;19983;-57
2022/03/29 06:57:01;;;;;;;;;;;11.70;72.50;;;;;;5032980;28;19971;-57
2022/03/29 06:59:28;;;;;;;;;;;11.60;74.70;;;;;;5031719;28;20312;-57
2022/03/29 07:01:55;;;;;;;;;;;12.20;73.40;;;;;;5029798;28;19925;-57
2022/03/29 07:04:23;;;;;;;;;;;12.90;73.10;;;;;;5031536;28;19979;-57
2022/03/29 07:06:50;;;;;;;;;;;13.50;70.50;;;;;;5031678;28;19933;-57
2022/03/29 07:12:01;;;;;;;;;;;14.30;67.20;;;;;;5028253;28;20004;-57
2022/03/29 07:14:28;;;;;;;;;;;14.70;66.40;;;;;;5020280;28;19932;-57
2022/03/29 07:16:55;;;;;;;;;;;15.60;66.00;;;;;;5014523;28;19929;-57
2022/03/29 07:19:24;;;;;;;;;;;16.10;66.90;;;;;;5024560;28;19925;-57
2022/03/29 07:21:51;;;;;;;;;;;17.20;62.80;;;;;;5028790;28;19929;-57
2022/03/29 07:24:21;;;;;;;;;;;18.00;61.00;;;;;;5017287;28;19926;-57
2022/03/29 07:26:47;;;;;;;;;;;19.00;61.40;;;;;;5025141;28;20412;-57
2022/03/29 07:29:14;;;;;;;;;;;19.40;58.40;;;;;;5022120;28;19987;-57
2022/03/29 07:31:42;;;;;;;;;;;19.20;57.40;;;;;;5026404;28;19937;-57
2022/03/29 07:34:09;;;;;;;;;;;18.90;59.70;;;;;;5021216;28;19927;-57
2022/03/29 07:36:37;;;;;;;;;;;18.00;59.20;;;;;;5016222;28;19925;-57
2022/03/29 07:39:04;;;;;;;;;;;17.90;57.70;;;;;;5026156;28;20371;-57
2022/03/29 07:41:30;;;;;;;;;;;17.90;59.20;;;;;;5023689;28;19972;-58
2022/03/29 07:43:57;;;;;;;;;;;17.90;58.90;;;;;;5012297;28;19926;-57
2022/03/29 07:46:24;;;;;;;;;;;17.70;61.90;;;;;;5016001;28;19979;-57
2022/03/29 07:48:50;;;;;;;;;;;17.20;62.00;;;;;;5019559;28;19933;-57
2022/03/29 07:51:17;;;;;;;;;;;16.90;62.80;;;;;;5012403;28;19987;-57
2022/03/29 07:53:45;;;;;;;;;;;16.40;62.00;;;;;;5012039;28;19926;-57
2022/03/29 07:56:16;;;;;;;;;;;16.00;64.50;;;;;;5011958;28;19926;-57
2022/03/29 07:58:42;;;;;;;;;;;16.30;63.20;;;;;;5012570;28;19983;-57
2022/03/29 08:01:09;;;;;;;;;;;16.70;65.20;;;;;;5011766;28;20476;-58
2022/03/29 08:03:36;;;;;;;;;;;17.10;63.00;;;;;;5012634;28;20371;-57
2022/03/29 08:06:04;;;;;;;;;;;17.10;60.80;;;;;;5029566;28;19983;-57
2022/03/29 08:08:32;;;;;;;;;;;17.30;60.00;;;;;;5025160;28;20314;-57
2022/03/29 08:11:01;;;;;;;;;;;16.90;62.20;;;;;;5030036;28;19925;-57
2022/03/29 08:13:28;;;;;;;;;;;17.00;61.40;;;;;;5026664;28;19933;-57
2022/03/29 08:15:56;;;;;;;;;;;16.90;61.20;;;;;;5011334;28;19925;-58
2022/03/29 08:18:23;;;;;;;;;;;17.60;62.80;;;;;;5021246;28;20024;-57
2022/03/29 08:20:49;;;;;;;;;;;18.30;61.00;;;;;;5030629;28;19925;-58
2022/03/29 08:23:16;;;;;;;;;;;19.00;59.50;;;;;;5030462;28;19979;-57
2022/03/29 08:25:43;;;;;;;;;;;19.40;57.90;;;;;;5030394;28;20006;-57
2022/03/29 08:28:12;;;;;;;;;;;19.70;57.60;;;;;;5028079;28;19925;-58
2022/03/29 08:30:39;;;;;;;;;;;19.80;58.50;;;;;;5020128;28;20308;-57
2022/03/29 08:33:06;;;;;;;;;;;19.60;58.00;;;;;;5030323;28;19971;-57
2022/03/29 08:35:34;;;;;;;;;;;19.20;58.20;;;;;;5014722;28;19929;-57
2022/03/29 08:38:01;;;;;;;;;;;19.50;57.40;;;;;;5015931;28;20001;-57
2022/03/29 08:40:28;;;;;;;;;;;19.20;58.90;;;;;;5030434;28;19995;-57
2022/03/29 08:42:56;;;;;;;;;;;19.00;60.20;;;;;;5030467;28;19936;-58
2022/03/29 08:45:27;;;;;;;;;;;19.20;57.60;;;;;;5030580;28;19929;-58
2022/03/29 08:47:56;;;;;;;;;;;18.30;58.60;;;;;;5029689;28;19933;-58
2022/03/29 08:50:24;;;;;;;;;;;18.30;59.10;;;;;;5030414;28;19983;-58
2022/03/29 08:52:52;;;;;;;;;;;18.50;59.10;;;;;;5029849;28;19926;-58
2022/03/29 08:55:19;;;;;;;;;;;18.50;60.40;;;;;;5029796;28;19928;-58
2022/03/29 08:57:48;;;;;;;;;;;18.40;59.60;;;;;;5029902;28;19929;-58
2022/03/29 09:00:16;;;;;;;;;;;18.10;60.00;;;;;;5030849;28;19960;-58
2022/03/29 09:02:44;;;;;;;;;;;18.10;60.70;;;;;;5030391;28;20401;-59
2022/03/29 09:05:12;;;;;;;;;;;17.60;60.00;;;;;;5029081;28;20401;-61
2022/03/29 09:07:49;;;;;;;;;;;17.70;59.20;;;;;;5029814;28;19925;-58
2022/03/29 09:10:16;;;;;;;;;;;17.20;60.50;;;;;;5030978;28;20308;-58
2022/03/29 09:12:43;;;;;;;;;;;17.20;60.70;;;;;;5030477;28;19925;-58
2022/03/29 09:15:10;;;;;;;;;;;17.30;59.30;;;;;;5030242;28;19925;-58
2022/03/29 09:17:38;;;;;;;;;;;18.00;58.80;;;;;;5030612;28;20012;-58
2022/03/29 09:20:08;;;;;;;;;;;18.60;59.10;;;;;;5028847;28;19932;-58
2022/03/29 09:22:35;;;;;;;;;;;19.40;57.10;;;;;;5032800;28;19925;-58
2022/03/29 09:25:02;;;;;;;;;;;19.80;56.70;;;;;;5032028;28;20016;-58
2022/03/29 09:27:29;;;;;;;;;;;19.90;55.30;;;;;;5034052;28;19951;-58
2022/03/29 09:30:06;;;;;;;;;;;20.50;55.80;;;;;;5033899;28;19925;-58
2022/03/29 09:32:32;;;;;;;;;;;20.70;55.70;;;;;;5033802;28;19925;-58
2022/03/29 09:35:03;;;;;;;;;;;20.90;54.30;;;;;;5033646;28;19925;-58
2022/03/29 09:37:43;;;;;;;;;;;21.10;56.00;;;;;;5034227;28;19925;-59
2022/03/29 09:40:11;;;;;;;;;;;21.50;55.30;;;;;;5019615;28;19925;-58
2022/03/29 09:42:39;;;;;;;;;;;21.50;54.10;;;;;;5033923;28;20054;-58
2022/03/29 09:45:06;;;;;;;;;;;21.60;54.90;;;;;;5033791;28;20449;-58
2022/03/29 09:47:33;;;;;;;;;;;21.30;56.10;;;;;;5033444;28;20312;-58
2022/03/29 09:50:01;;;;;;;;;;;20.90;55.50;;;;;;5033256;28;19980;-58
2022/03/29 09:52:28;;;;;;;;;;;21.10;55.00;;;;;;5033783;28;19929;-58
2022/03/29 09:55:13;;;;;;;;;;;20.90;57.20;;;;;;5033354;28;19925;-58
2022/03/29 09:57:41;;;;;;;;;;;21.80;56.20;;;;;;5033216;28;19925;-58
2022/03/29 10:00:08;;;;;;;;;;;22.80;55.70;;;;;;5022339;28;19925;-58
2022/03/29 10:02:36;;;;;;;;;;;23.40;56.50;;;;;;5033257;28;20000;-58
2022/03/29 10:05:04;;;;;;;;;;;23.50;54.30;;;;;;5033256;28;19925;-58
2022/03/29 10:09:56;;;;;;;;;;;22.90;55.30;;;;;;5069997;23;19994;-52
2022/03/29 10:12:25;;;;;;;;;;;22.80;54.90;;;;;;5053868;28;19971;-54
2022/03/29 10:14:54;;;;;;;;;;;22.80;53.80;;;;;;5053799;28;19986;-52
2022/03/29 10:17:22;;;;;;;;;;;22.70;55.00;;;;;;5053635;28;19928;-54
2022/03/29 10:19:49;;;;;;;;;;;22.30;53.00;;;;;;5022429;28;20385;-50
2022/03/29 10:22:16;;;;;;;;;;;22.40;50.70;;;;;;5029659;28;20385;-54
2022/03/29 10:24:43;;;;;;;;;;;22.60;52.20;;;;;;5022756;28;19925;-50
2022/03/29 10:27:10;;;;;;;;;;;22.80;51.70;;;;;;5032969;28;19925;-50
2022/03/29 10:29:40;;;;;;;;;;;22.60;54.40;;;;;;5033092;28;20348;-51
2022/03/29 10:32:07;;;;;;;;;;;22.70;52.80;;;;;;5032798;28;19925;-51
2022/03/29 10:34:37;;;;;;;;;;;22.60;53.90;;;;;;5031143;28;20024;-50
2022/03/29 10:37:07;;;;;;;;;;;22.60;52.10;;;;;;5028751;28;20403;-50
2022/03/29 10:39:51;;;;;;;;;;;21.90;53.70;;;;;;5032200;28;19979;-51
2022/03/29 10:42:25;;;;;;;;;;;21.80;55.50;;;;;;5030720;28;19968;-51
2022/03/29 10:45:05;;;;;;;;;;;22.10;54.60;;;;;;5031463;28;19971;-50
2022/03/29 10:47:32;;;;;;;;;;;22.10;55.80;;;;;;5031444;28;19983;-50
2022/03/29 10:49:59;;;;;;;;;;;21.70;55.00;;;;;;5018649;28;20352;-50
2022/03/29 10:52:30;;;;;;;;;;;21.80;55.20;;;;;;5014559;28;19925;-51
2022/03/29 10:55:12;;;;;;;;;;;21.50;52.70;;;;;;5025726;28;21072;-51
2022/03/29 10:57:38;;;;;;;;;;;21.50;54.30;;;;;;5029041;28;19995;-50
2022/03/29 11:00:25;;;;;;;;;;;21.70;52.00;;;;;;5028828;28;19953;-53
2022/03/29 11:03:10;;;;;;;;;;;21.30;51.20;;;;;;5028561;28;20404;-54
2022/03/29 11:05:56;;;;;;;;;;;21.30;51.20;;;;;;5029906;28;20389;-52
2022/03/29 11:08:23;;;;;;;;;;;21.60;50.60;;;;;;5032550;28;19975;-52
2022/03/29 11:10:49;;;;;;;;;;;22.00;53.00;;;;;;5023419;28;19926;-52
2022/03/29 11:13:26;;;;;;;;;;;21.60;50.50;;;;;;5020456;28;19925;-52
2022/03/29 11:15:57;;;;;;;;;;;21.50;51.60;;;;;;5032093;28;19971;-50
2022/03/29 11:18:37;;;;;;;;;;;21.70;52.00;;;;;;5032288;28;19995;-52
2022/03/29 11:21:04;;;;;;;;;;;21.70;50.00;;;;;;5032439;28;20242;-52
2022/03/29 11:23:32;;;;;;;;;;;21.80;51.90;;;;;;5032565;28;19926;-52
2022/03/29 11:26:04;;;;;;;;;;;21.70;54.10;;;;;;5031891;28;19971;-52
2022/03/29 11:28:31;;;;;;;;;;;21.50;51.70;;;;;;5032408;28;19995;-52
2022/03/29 11:30:59;;;;;;;;;;;21.40;53.30;;;;;;5032387;28;20023;-52
2022/03/29 11:33:33;;;;;;;;;;;21.70;51.80;;;;;;5031920;28;19929;-52
2022/03/29 11:36:00;;;;;;;;;;;21.70;53.00;;;;;;5031815;28;19979;-53
2022/03/29 11:38:31;;;;;;;;;;;21.40;56.30;;;;;;5032115;28;19960;-50
2022/03/29 11:40:58;;;;;;;;;;;21.30;54.90;;;;;;5032185;28;19925;-50
2022/03/29 11:43:25;;;;;;;;;;;20.60;56.90;;;;;;5031761;28;20086;-52
2022/03/29 11:45:52;;;;;;;;;;;20.50;52.20;;;;;;5031578;28;19976;-51
2022/03/29 11:48:24;;;;;;;;;;;20.80;53.60;;;;;;5031912;28;19925;-51
2022/03/29 11:50:52;;;;;;;;;;;20.60;52.80;;;;;;5031682;28;19925;-52
2022/03/29 11:53:20;;;;;;;;;;;20.90;55.80;;;;;;5031583;28;20270;-52
2022/03/29 11:56:02;;;;;;;;;;;20.70;63.20;;;;;;5031163;28;19937;-52
2022/03/29 11:58:29;;;;;;;;;;;20.80;62.90;;;;;;5010073;28;19940;-52
2022/03/29 12:01:00;;;;;;;;;;;20.60;64.00;;;;;;5012168;28;19930;-51
2022/03/29 12:03:29;;;;;;;;;;;20.30;65.00;;;;;;5011648;28;20286;-52
2022/03/29 12:06:06;;;;;;;;;;;20.50;60.10;;;;;;5018963;28;20649;-51
2022/03/29 12:08:46;;;;;;;;;;;20.50;60.00;;;;;;5031174;28;20032;-53
2022/03/29 12:11:16;;;;;;;;;;;20.80;59.00;;;;;;5031062;28;20440;-52
2022/03/29 12:13:44;;;;;;;;;;;20.90;60.20;;;;;;5031300;28;20305;-51
2022/03/29 12:16:22;;;;;;;;;;;20.20;60.70;;;;;;5030954;28;20368;-51
2022/03/29 12:18:50;;;;;;;;;;;20.30;61.20;;;;;;5030633;28;20462;-51
2022/03/29 12:21:18;;;;;;;;;;;20.40;61.50;;;;;;5031280;28;19933;-52
2022/03/29 12:23:45;;;;;;;;;;;20.00;59.70;;;;;;5031358;28;19929;-51
2022/03/29 12:26:12;;;;;;;;;;;20.10;58.70;;;;;;5030528;28;19925;-52
2022/03/29 12:28:40;;;;;;;;;;;20.20;58.00;;;;;;5024060;28;20023;-52
2022/03/29 12:31:10;;;;;;;;;;;20.40;62.90;;;;;;5028700;28;19988;-52
2022/03/29 12:33:37;;;;;;;;;;;20.00;63.20;;;;;;5031014;28;19933;-51
2022/03/29 12:36:08;;;;;;;;;;;19.90;59.10;;;;;;5030921;28;19925;-51
2022/03/29 12:38:42;;;;;;;;;;;20.00;59.30;;;;;;5030336;28;19999;-51
2022/03/29 12:41:11;;;;;;;;;;;20.20;59.60;;;;;;5029640;28;20460;-51
2022/03/29 12:43:38;;;;;;;;;;;19.70;58.80;;;;;;5030057;28;19932;-51
2022/03/29 12:46:07;;;;;;;;;;;19.20;61.00;;;;;;5028848;28;19933;-51
2022/03/29 12:48:34;;;;;;;;;;;19.40;59.40;;;;;;5029785;28;20344;-51
2022/03/29 12:51:05;;;;;;;;;;;19.50;58.30;;;;;;5027096;28;19968;-51
2022/03/29 12:53:33;;;;;;;;;;;19.40;56.60;;;;;;5033452;28;20656;-50
2022/03/29 12:56:04;;;;;;;;;;;19.50;57.80;;;;;;5033278;28;19936;-50
2022/03/29 12:58:32;;;;;;;;;;;19.40;55.80;;;;;;5019806;28;19925;-51
2022/03/29 13:01:00;;;;;;;;;;;19.50;55.10;;;;;;5015254;28;19965;-50
2022/03/29 13:03:27;;;;;;;;;;;20.10;54.20;;;;;;5017605;28;19929;-51
2022/03/29 13:05:55;;;;;;;;;;;20.50;55.10;;;;;;5018047;28;19925;-51
2022/03/29 13:08:22;;;;;;;;;;;19.90;54.30;;;;;;5014604;28;19961;-50
2022/03/29 13:10:50;;;;;;;;;;;20.00;55.90;;;;;;5014679;28;19925;-51
2022/03/29 13:13:19;;;;;;;;;;;19.40;55.20;;;;;;5014542;28;19929;-51
2022/03/29 13:15:48;;;;;;;;;;;19.40;55.90;;;;;;5030511;28;19929;-50
2022/03/29 13:18:32;;;;;;;;;;;19.20;55.00;;;;;;5023800;28;19925;-51
2022/03/29 13:21:11;;;;;;;;;;;18.90;56.50;;;;;;5033695;28;19932;-50
2022/03/29 13:23:39;;;;;;;;;;;19.20;56.70;;;;;;5014298;28;20540;-51
2022/03/29 13:26:08;;;;;;;;;;;18.80;56.00;;;;;;5029028;28;19929;-50
2022/03/29 13:28:34;;;;;;;;;;;19.00;56.20;;;;;;5033232;28;19931;-51
2022/03/29 13:31:01;;;;;;;;;;;19.10;55.50;;;;;;5030451;28;20359;-50
2022/03/29 13:33:28;;;;;;;;;;;18.90;55.30;;;;;;5033221;28;19925;-50
2022/03/29 13:35:55;;;;;;;;;;;19.00;53.20;;;;;;5032926;28;19929;-49
2022/03/29 13:38:23;;;;;;;;;;;18.80;54.10;;;;;;5023777;28;20368;-50
2022/03/29 13:40:50;;;;;;;;;;;18.50;56.10;;;;;;5014185;28;19935;-49
2022/03/29 13:43:19;;;;;;;;;;;18.60;55.90;;;;;;5029127;28;19979;-50
2022/03/29 13:45:46;;;;;;;;;;;19.00;55.80;;;;;;5033190;28;20489;-49
2022/03/29 13:48:13;;;;;;;;;;;19.10;54.40;;;;;;5032791;28;19979;-49
2022/03/29 13:50:40;;;;;;;;;;;19.40;53.30;;;;;;5030960;28;19933;-49
2022/03/29 13:53:07;;;;;;;;;;;19.60;55.50;;;;;;5032538;28;19950;-50
2022/03/29 13:55:34;;;;;;;;;;;19.30;56.60;;;;;;5033026;28;19929;-49
2022/03/29 13:58:03;;;;;;;;;;;19.00;55.80;;;;;;5032882;28;19925;-49
2022/03/29 14:00:31;;;;;;;;;;;18.90;56.10;;;;;;5024642;28;19960;-50
2022/03/29 14:02:58;;;;;;;;;;;19.00;55.90;;;;;;5027902;28;20400;-49
2022/03/29 14:05:26;;;;;;;;;;;18.80;55.70;;;;;;5032513;28;19940;-49
2022/03/29 14:07:53;;;;;;;;;;;18.70;55.10;;;;;;5032470;28;20017;-49
2022/03/29 14:10:20;;;;;;;;;;;19.00;54.90;;;;;;5032509;28;19971;-50
2022/03/29 14:12:47;;;;;;;;;;;19.50;55.10;;;;;;5032222;28;19925;-49
2022/03/29 14:15:14;;;;;;;;;;;19.90;53.60;;;;;;5032004;28;19929;-50
2022/03/29 14:17:42;;;;;;;;;;;20.00;54.60;;;;;;5031509;28;19929;-49
2022/03/29 14:20:09;;;;;;;;;;;20.20;54.80;;;;;;5029598;28;20384;-50
2022/03/29 14:22:36;;;;;;;;;;;20.00;54.40;;;;;;5033348;28;19952;-50
2022/03/29 14:25:04;;;;;;;;;;;19.90;55.80;;;;;;5033456;28;19928;-51
2022/03/29 14:27:31;;;;;;;;;;;19.80;54.30;;;;;;5033342;28;20309;-50
2022/03/29 14:29:58;;;;;;;;;;;20.10;55.30;;;;;;5033573;28;19933;-50
2022/03/29 14:32:25;;;;;;;;;;;19.70;53.60;;;;;;5032880;28;19929;-49
2022/03/29 14:34:53;;;;;;;;;;;19.50;53.90;;;;;;5033296;28;19925;-49
2022/03/29 14:37:22;;;;;;;;;;;19.20;54.10;;;;;;5033233;28;19978;-50
2022/03/29 14:39:49;;;;;;;;;;;18.90;54.00;;;;;;5033277;28;19925;-49